Time;durP1;ratioP1;P1;durP2;ratioP2;P2;SDS_P1;SDS_P2;PMS_P1;PMS_P2;Temp;Humidity;BMP_temperature;BMP_pressure;BME280_temperature;BME280_humidity;BME280_pressure;Samples;Min_cycle;Max_cycle;Signal;HPM_P1;HPM_P2
2024/03/19 00:01:04;;;;;;;62.40;42.30;;;;;;;;;;10129652;28;20044;-78
2024/03/19 00:05:57;;;;;;;71.00;45.13;;;;;;;;;;10133098;28;20052;-78
2024/03/19 00:10:49;;;;;;;80.03;48.35;;;;;;;;;;10133347;28;20045;-79
2024/03/19 00:15:44;;;;;;;95.93;53.45;;;;;;;;;;10132229;28;20493;-79
2024/03/19 00:20:41;;;;;;;104.80;54.75;;;;;;;;;;10132014;28;20048;-79
2024/03/19 00:25:35;;;;;;;103.82;52.40;;;;;;;;;;10130472;28;20047;-79
2024/03/19 00:30:27;;;;;;;91.20;55.50;;;;;;;;;;10130315;28;20114;-77
2024/03/19 00:35:20;;;;;;;91.75;55.78;;;;;;;;;;10131395;28;20049;-79
2024/03/19 00:40:12;;;;;;;92.93;55.25;;;;;;;;;;10135590;28;20053;-77
2024/03/19 00:45:06;;;;;;;89.85;55.33;;;;;;;;;;10137068;28;20055;-78
2024/03/19 00:49:59;;;;;;;92.82;57.20;;;;;;;;;;10130397;28;20132;-78
2024/03/19 00:54:52;;;;;;;92.80;56.25;;;;;;;;;;10129773;28;20044;-76
2024/03/19 00:59:45;;;;;;;94.25;60.28;;;;;;;;;;10129929;28;20040;-78
2024/03/19 01:04:37;;;;;;;79.38;53.78;;;;;;;;;;10133302;28;20044;-78
2024/03/19 01:09:30;;;;;;;85.45;55.53;;;;;;;;;;10141427;28;20040;-80
2024/03/19 01:14:22;;;;;;;65.32;41.28;;;;;;;;;;10128134;28;20052;-77
2024/03/19 01:19:15;;;;;;;77.45;50.33;;;;;;;;;;10129037;28;20135;-79
2024/03/19 01:24:06;;;;;;;75.15;49.78;;;;;;;;;;10128837;28;20076;-79
2024/03/19 01:28:59;;;;;;;50.97;36.38;;;;;;;;;;10129517;28;20530;-78
2024/03/19 01:33:51;;;;;;;62.25;43.50;;;;;;;;;;10128006;28;20059;-78
2024/03/19 01:38:43;;;;;;;65.53;43.85;;;;;;;;;;10131010;28;20056;-81
2024/03/19 01:43:36;;;;;;;67.00;46.55;;;;;;;;;;10128001;28;20128;-78
2024/03/19 01:48:29;;;;;;;67.10;45.78;;;;;;;;;;10128546;28;20055;-79
2024/03/19 01:53:21;;;;;;;67.65;46.45;;;;;;;;;;10128523;28;20573;-79
2024/03/19 01:58:12;;;;;;;66.38;45.78;;;;;;;;;;10128330;28;20040;-79
2024/03/19 02:03:05;;;;;;;75.43;46.08;;;;;;;;;;10119520;28;20504;-78
2024/03/19 02:07:58;;;;;;;69.28;47.08;;;;;;;;;;10128144;28;20504;-79
2024/03/19 02:12:50;;;;;;;69.85;47.38;;;;;;;;;;10127303;28;20060;-79
2024/03/19 02:17:42;;;;;;;51.38;36.13;;;;;;;;;;10127901;28;20500;-80
2024/03/19 02:22:34;;;;;;;42.80;31.00;;;;;;;;;;10127207;28;20041;-79
2024/03/19 02:27:27;;;;;;;42.90;30.17;;;;;;;;;;10125884;28;20076;-80
2024/03/19 02:32:20;;;;;;;41.38;30.75;;;;;;;;;;10127472;28;20072;-78
2024/03/19 02:37:12;;;;;;;35.33;25.35;;;;;;;;;;10127319;28;20524;-78
2024/03/19 02:42:05;;;;;;;27.90;20.42;;;;;;;;;;10127048;28;20496;-79
2024/03/19 02:46:57;;;;;;;25.15;18.17;;;;;;;;;;10128499;28;20052;-78
2024/03/19 02:51:49;;;;;;;24.08;20.58;;;;;;;;;;10126900;28;20051;-78
2024/03/19 02:56:42;;;;;;;26.92;19.85;;;;;;;;;;10135289;28;20048;-80
2024/03/19 03:01:35;;;;;;;23.77;19.92;;;;;;;;;;10127044;28;20048;-79
2024/03/19 03:06:28;;;;;;;26.83;20.55;;;;;;;;;;10130627;28;20052;-79
2024/03/19 03:11:20;;;;;;;44.97;29.25;;;;;;;;;;10127090;28;20045;-78
2024/03/19 03:16:12;;;;;;;31.92;22.20;;;;;;;;;;10126557;28;20049;-79
2024/03/19 03:21:05;;;;;;;44.83;29.90;;;;;;;;;;10126540;28;20040;-79
2024/03/19 03:25:58;;;;;;;43.25;27.75;;;;;;;;;;10126206;28;20125;-79
2024/03/19 03:30:51;;;;;;;54.47;34.67;;;;;;;;;;10126550;28;20124;-79
2024/03/19 03:35:44;;;;;;;57.58;32.40;;;;;;;;;;10126058;28;20052;-79
2024/03/19 03:40:36;;;;;;;24.98;17.88;;;;;;;;;;10125301;28;20501;-79
2024/03/19 03:45:29;;;;;;;22.77;19.73;;;;;;;;;;10130809;28;20407;-79
2024/03/19 03:50:22;;;;;;;20.77;16.95;;;;;;;;;;10117832;28;20068;-79
2024/03/19 03:55:15;;;;;;;23.33;17.38;;;;;;;;;;10132385;28;20102;-79
2024/03/19 04:00:08;;;;;;;23.73;19.30;;;;;;;;;;10132312;28;20052;-79
2024/03/19 04:05:07;;;;;;;25.33;21.10;;;;;;;;;;10129287;28;20412;-79
2024/03/19 04:10:00;;;;;;;30.75;22.13;;;;;;;;;;10134283;28;20447;-78
2024/03/19 04:14:52;;;;;;;27.42;21.50;;;;;;;;;;10131142;28;20075;-79
2024/03/19 04:19:45;;;;;;;37.13;25.42;;;;;;;;;;10133018;28;20045;-78
2024/03/19 04:24:38;;;;;;;28.83;23.73;;;;;;;;;;10130899;28;20052;-78
2024/03/19 04:29:29;;;;;;;26.77;23.67;;;;;;;;;;10132016;28;20049;-79
2024/03/19 04:34:22;;;;;;;34.47;26.70;;;;;;;;;;10142585;28;20420;-80
2024/03/19 04:39:17;;;;;;;47.15;31.23;;;;;;;;;;10132214;28;20467;-79
2024/03/19 04:44:11;;;;;;;75.45;29.75;;;;;;;;;;10130385;28;20060;-79
2024/03/19 04:49:03;;;;;;;56.25;28.05;;;;;;;;;;10130531;28;20074;-79
2024/03/19 04:53:55;;;;;;;42.58;28.10;;;;;;;;;;10129983;28;20049;-79
2024/03/19 04:58:48;;;;;;;48.58;31.13;;;;;;;;;;10130700;28;20052;-79
2024/03/19 05:03:41;;;;;;;115.22;40.50;;;;;;;;;;10129875;28;20139;-79
2024/03/19 05:08:32;;;;;;;104.93;29.98;;;;;;;;;;10130045;28;20068;-80
2024/03/19 05:13:25;;;;;;;118.82;38.13;;;;;;;;;;10138856;28;20415;-80
2024/03/19 05:18:17;;;;;;;78.75;31.60;;;;;;;;;;10132631;28;20541;-79
2024/03/19 05:23:09;;;;;;;55.72;31.90;;;;;;;;;;10129388;28;20053;-79
2024/03/19 05:28:02;;;;;;;45.55;28.38;;;;;;;;;;10128576;28;20056;-78
2024/03/19 05:32:55;;;;;;;67.68;29.95;;;;;;;;;;10137699;28;20040;-79
2024/03/19 05:37:48;;;;;;;36.15;23.92;;;;;;;;;;10136327;28;20143;-79
2024/03/19 05:42:40;;;;;;;63.85;29.40;;;;;;;;;;10129207;28;20044;-79
2024/03/19 05:47:34;;;;;;;49.22;31.08;;;;;;;;;;10134857;28;20519;-78
2024/03/19 05:52:27;;;;;;;39.10;27.95;;;;;;;;;;10117309;28;20424;-78
2024/03/19 05:57:19;;;;;;;33.88;25.92;;;;;;;;;;10130611;28;20048;-77
2024/03/19 06:02:11;;;;;;;55.30;38.75;;;;;;;;;;10129208;28;20105;-79
2024/03/19 06:07:04;;;;;;;41.15;30.60;;;;;;;;;;10129081;28;20051;-78
2024/03/19 06:11:57;;;;;;;165.57;38.30;;;;;;;;;;10128606;28;20068;-79
2024/03/19 06:16:49;;;;;;;103.97;36.60;;;;;;;;;;10128224;28;20044;-79
2024/03/19 06:21:43;;;;;;;57.58;33.40;;;;;;;;;;10128951;28;20412;-79
2024/03/19 06:26:35;;;;;;;49.20;31.65;;;;;;;;;;10128301;28;20052;-79
2024/03/19 06:31:28;;;;;;;48.30;31.13;;;;;;;;;;10128668;28;20052;-79
2024/03/19 06:36:20;;;;;;;57.72;35.88;;;;;;;;;;10126033;28;20063;-81
2024/03/19 06:41:13;;;;;;;56.58;36.85;;;;;;;;;;10127390;28;20587;-83
2024/03/19 06:46:06;;;;;;;62.85;40.05;;;;;;;;;;10130543;28;20416;-81
2024/03/19 06:50:59;;;;;;;82.00;41.55;;;;;;;;;;10133091;28;20051;-82
2024/03/19 06:55:53;;;;;;;82.13;40.53;;;;;;;;;;10127436;28;20045;-81
2024/03/19 07:00:51;;;;;;;79.18;46.08;;;;;;;;;;10127931;28;20040;-80
2024/03/19 07:05:45;;;;;;;68.63;45.88;;;;;;;;;;10125909;28;20077;-80
2024/03/19 07:10:37;;;;;;;75.75;49.00;;;;;;;;;;10127694;28;20075;-81
2024/03/19 07:15:30;;;;;;;82.60;51.00;;;;;;;;;;10126742;28;20067;-79
2024/03/19 07:20:24;;;;;;;79.88;51.58;;;;;;;;;;10127159;28;20041;-78
2024/03/19 07:25:17;;;;;;;78.88;52.78;;;;;;;;;;10124151;28;20067;-79
2024/03/19 07:30:11;;;;;;;80.72;52.90;;;;;;;;;;10133431;28;20132;-79
2024/03/19 07:35:07;;;;;;;101.68;55.40;;;;;;;;;;10132804;28;20570;-79
2024/03/19 07:40:00;;;;;;;93.20;52.22;;;;;;;;;;10128911;28;20040;-78
2024/03/19 07:44:53;;;;;;;88.82;52.42;;;;;;;;;;10133643;28;20057;-78
2024/03/19 07:49:48;;;;;;;84.32;53.42;;;;;;;;;;10131182;28;20064;-79
2024/03/19 07:54:41;;;;;;;74.78;43.85;;;;;;;;;;10131195;28;20458;-78
2024/03/19 07:59:34;;;;;;;76.95;44.03;;;;;;;;;;10132682;28;20052;-79
2024/03/19 08:04:27;;;;;;;74.03;47.35;;;;;;;;;;10131992;28;20091;-78
2024/03/19 08:09:19;;;;;;;79.80;44.63;;;;;;;;;;10131589;28;20389;-79
2024/03/19 08:14:12;;;;;;;69.10;42.78;;;;;;;;;;10131598;28;20131;-79
2024/03/19 08:19:05;;;;;;;69.03;44.15;;;;;;;;;;10132221;28;20122;-80
2024/03/19 08:23:58;;;;;;;77.47;44.72;;;;;;;;;;10129919;28;20079;-80
2024/03/19 08:28:50;;;;;;;67.22;43.33;;;;;;;;;;10130961;28;20119;-79
2024/03/19 08:33:42;;;;;;;75.57;44.13;;;;;;;;;;10132577;28;20048;-80
2024/03/19 08:38:35;;;;;;;73.22;44.92;;;;;;;;;;10129580;28;20423;-79
2024/03/19 08:43:28;;;;;;;76.22;45.25;;;;;;;;;;10130841;28;20044;-79
2024/03/19 08:48:20;;;;;;;80.82;47.30;;;;;;;;;;10120784;28;20047;-79
2024/03/19 08:53:13;;;;;;;85.63;46.17;;;;;;;;;;10135204;28;20127;-78
2024/03/19 08:58:05;;;;;;;77.68;45.22;;;;;;;;;;10129117;28;20126;-79
2024/03/19 09:02:58;;;;;;;78.03;44.55;;;;;;;;;;10129856;28;20076;-78
2024/03/19 09:07:50;;;;;;;78.30;43.05;;;;;;;;;;10128849;28;20044;-79
2024/03/19 09:12:44;;;;;;;73.65;45.22;;;;;;;;;;10116434;28;20060;-79
2024/03/19 09:17:36;;;;;;;69.43;45.10;;;;;;;;;;10129525;28;20053;-78
2024/03/19 09:22:29;;;;;;;75.60;46.90;;;;;;;;;;10130838;28;20044;-79
2024/03/19 09:27:21;;;;;;;79.00;47.80;;;;;;;;;;10129904;28;20068;-78
2024/03/19 09:32:13;;;;;;;76.35;45.13;;;;;;;;;;10122960;28;20088;-77
2024/03/19 09:37:05;;;;;;;91.57;49.95;;;;;;;;;;10127292;28;20044;-78
2024/03/19 09:42:23;;;;;;;80.55;47.47;;;;;;;;;;10129486;28;20044;-78
2024/03/19 09:47:20;;;;;;;96.82;51.13;;;;;;;;;;10126086;28;20496;-78
2024/03/19 09:52:14;;;;;;;78.78;47.53;;;;;;;;;;10126543;28;20060;-78
2024/03/19 09:57:14;;;;;;;88.90;52.03;;;;;;;;;;10122647;28;20051;-79
2024/03/19 10:02:27;;;;;;;77.28;48.90;;;;;;;;;;10123851;28;20064;-79
2024/03/19 10:07:22;;;;;;;65.50;44.85;;;;;;;;;;10128762;28;20045;-78
2024/03/19 10:12:16;;;;;;;59.85;40.15;;;;;;;;;;10132852;28;20048;-77
2024/03/19 10:17:14;;;;;;;54.83;41.28;;;;;;;;;;10106520;28;20041;-77
2024/03/19 10:22:09;;;;;;;68.37;47.90;;;;;;;;;;10126341;28;20044;-77
2024/03/19 10:27:02;;;;;;;57.30;41.92;;;;;;;;;;10093660;28;20079;-77
2024/03/19 10:31:55;;;;;;;52.33;39.65;;;;;;;;;;10135122;28;20036;-77
2024/03/19 10:36:51;;;;;;;54.25;38.47;;;;;;;;;;10109155;28;20439;-78
2024/03/19 10:41:44;;;;;;;45.83;35.30;;;;;;;;;;10126683;28;20135;-77
2024/03/19 10:46:38;;;;;;;55.30;40.40;;;;;;;;;;10125467;28;20048;-78
2024/03/19 10:51:30;;;;;;;54.08;40.17;;;;;;;;;;10130911;28;20047;-78
2024/03/19 10:56:25;;;;;;;56.20;41.42;;;;;;;;;;10125584;28;20059;-78
2024/03/19 11:01:25;;;;;;;60.40;42.28;;;;;;;;;;10103136;28;20061;-77
2024/03/19 11:06:22;;;;;;;70.07;47.63;;;;;;;;;;10129062;28;20048;-78
2024/03/19 11:11:14;;;;;;;61.33;43.38;;;;;;;;;;10133101;28;20121;-78
2024/03/19 11:16:14;;;;;;;57.78;43.30;;;;;;;;;;10134110;28;20060;-78
2024/03/19 11:21:16;;;;;;;78.75;52.75;;;;;;;;;;10136164;28;20097;-79
2024/03/19 11:26:09;;;;;;;69.60;49.08;;;;;;;;;;10116271;28;20061;-78
2024/03/19 11:31:05;;;;;;;61.28;40.78;;;;;;;;;;10132538;28;20040;-78
2024/03/19 11:35:58;;;;;;;63.70;45.08;;;;;;;;;;10133671;28;20072;-78
2024/03/19 11:40:51;;;;;;;60.70;42.92;;;;;;;;;;10134785;28;20052;-78
2024/03/19 11:45:48;;;;;;;51.55;37.65;;;;;;;;;;10133740;28;20048;-78
2024/03/19 11:50:47;;;;;;;59.72;42.72;;;;;;;;;;10132655;28;20573;-77
2024/03/19 11:55:39;;;;;;;54.55;37.55;;;;;;;;;;10132128;28;20420;-78
2024/03/19 12:00:32;;;;;;;56.13;40.67;;;;;;;;;;10131337;28;20040;-79
2024/03/19 12:05:28;;;;;;;61.55;45.80;;;;;;;;;;10131146;28;20075;-77
2024/03/19 12:10:23;;;;;;;61.33;42.42;;;;;;;;;;10133457;28;20040;-78
2024/03/19 12:15:18;;;;;;;57.55;44.70;;;;;;;;;;10135949;28;20048;-77
2024/03/19 12:20:11;;;;;;;56.53;43.15;;;;;;;;;;10131536;28;20127;-78
2024/03/19 12:25:05;;;;;;;48.58;40.95;;;;;;;;;;10137901;28;20059;-79
2024/03/19 12:29:58;;;;;;;50.65;39.83;;;;;;;;;;10114835;28;20143;-78
2024/03/19 12:34:58;;;;;;;53.97;39.42;;;;;;;;;;10130655;28;20045;-78
2024/03/19 12:39:51;;;;;;;58.13;42.55;;;;;;;;;;10130753;28;20439;-79
2024/03/19 12:44:45;;;;;;;53.33;38.88;;;;;;;;;;10129249;28;20131;-78
2024/03/19 12:49:39;;;;;;;53.05;37.72;;;;;;;;;;10129852;28;20119;-78
2024/03/19 12:54:31;;;;;;;46.33;34.75;;;;;;;;;;10129988;28;20469;-78
2024/03/19 12:59:23;;;;;;;52.67;41.85;;;;;;;;;;10128923;28;20048;-79
2024/03/19 13:04:16;;;;;;;46.60;37.13;;;;;;;;;;10129646;28;20051;-79
2024/03/19 13:09:08;;;;;;;47.58;37.10;;;;;;;;;;10129450;28;20037;-79
2024/03/19 13:14:01;;;;;;;48.95;32.20;;;;;;;;;;10129482;28;20477;-79
2024/03/19 13:18:53;;;;;;;37.05;28.90;;;;;;;;;;10128634;28;20178;-79
2024/03/19 13:23:47;;;;;;;40.00;32.95;;;;;;;;;;10127327;28;20561;-78
2024/03/19 13:28:39;;;;;;;47.58;31.70;;;;;;;;;;10128063;28;20067;-79
2024/03/19 13:33:31;;;;;;;39.08;29.70;;;;;;;;;;10130687;28;20056;-79
2024/03/19 13:38:23;;;;;;;42.72;32.63;;;;;;;;;;10128613;28;20070;-80
2024/03/19 13:43:16;;;;;;;38.83;30.50;;;;;;;;;;10128491;28;20071;-79
2024/03/19 13:48:08;;;;;;;37.47;29.20;;;;;;;;;;10127592;28;20424;-78
2024/03/19 13:53:01;;;;;;;36.95;30.58;;;;;;;;;;10133022;28;20070;-78
2024/03/19 13:57:54;;;;;;;38.33;26.73;;;;;;;;;;10129277;28;20047;-79
2024/03/19 14:02:46;;;;;;;34.53;25.55;;;;;;;;;;10133098;28;20479;-78
2024/03/19 14:07:39;;;;;;;41.92;29.35;;;;;;;;;;10125759;28;20036;-78
2024/03/19 14:12:35;;;;;;;38.75;27.17;;;;;;;;;;10130401;28;20067;-78
2024/03/19 14:17:27;;;;;;;44.72;32.08;;;;;;;;;;10132517;28;20102;-79
2024/03/19 14:22:21;;;;;;;41.78;29.40;;;;;;;;;;10126453;28;20040;-78
2024/03/19 14:27:15;;;;;;;36.47;27.42;;;;;;;;;;10126446;28;20419;-78
2024/03/19 14:32:10;;;;;;;38.70;27.73;;;;;;;;;;10129262;28;20044;-78
2024/03/19 14:37:03;;;;;;;34.15;24.42;;;;;;;;;;10122934;28;20049;-79
2024/03/19 14:41:55;;;;;;;33.83;25.75;;;;;;;;;;10136758;28;20051;-77
2024/03/19 14:46:48;;;;;;;37.65;26.63;;;;;;;;;;10101338;28;20120;-78
2024/03/19 14:51:43;;;;;;;45.28;24.27;;;;;;;;;;10101548;28;20057;-79
2024/03/19 14:56:36;;;;;;;32.97;24.35;;;;;;;;;;10105982;28;20057;-79
2024/03/19 15:01:28;;;;;;;38.60;26.23;;;;;;;;;;10098919;28;20044;-78
2024/03/19 15:06:20;;;;;;;32.05;22.80;;;;;;;;;;10099055;28;20166;-78
2024/03/19 15:11:12;;;;;;;31.80;22.42;;;;;;;;;;10103615;28;20051;-79
2024/03/19 15:16:05;;;;;;;32.50;23.35;;;;;;;;;;10098518;28;20045;-79
2024/03/19 15:21:01;;;;;;;24.90;20.77;;;;;;;;;;10098747;28;20485;-78
2024/03/19 15:25:54;;;;;;;30.25;21.65;;;;;;;;;;10101225;28;20069;-79
2024/03/19 15:30:46;;;;;;;30.80;23.48;;;;;;;;;;10102313;28;20045;-79
2024/03/19 15:35:38;;;;;;;30.98;21.98;;;;;;;;;;10102038;28;20041;-79
2024/03/19 15:40:32;;;;;;;27.55;21.05;;;;;;;;;;10101201;28;20052;-78
2024/03/19 15:45:24;;;;;;;26.45;20.83;;;;;;;;;;10123465;28;20069;-79
2024/03/19 15:50:17;;;;;;;33.30;22.02;;;;;;;;;;10130197;28;20413;-79
2024/03/19 15:55:11;;;;;;;25.65;19.60;;;;;;;;;;10129152;28;20127;-78
2024/03/19 16:00:10;;;;;;;29.17;21.98;;;;;;;;;;10127481;28;20439;-78
2024/03/19 16:05:19;;;;;;;21.90;17.40;;;;;;;;;;10127849;28;20110;-77
2024/03/19 16:10:12;;;;;;;23.08;17.67;;;;;;;;;;10128924;28;20128;-78
2024/03/19 16:15:05;;;;;;;26.20;19.13;;;;;;;;;;10135030;28;20127;-79
2024/03/19 16:19:58;;;;;;;23.73;18.52;;;;;;;;;;10131857;28;20048;-78
2024/03/19 16:24:53;;;;;;;24.10;17.65;;;;;;;;;;10128251;28;20074;-78
2024/03/19 16:29:47;;;;;;;25.98;18.77;;;;;;;;;;10132176;28;20056;-78
2024/03/19 16:34:40;;;;;;;26.02;20.35;;;;;;;;;;10132334;28;20519;-79
2024/03/19 16:39:33;;;;;;;32.42;19.40;;;;;;;;;;10138121;28;20048;-77
2024/03/19 16:44:26;;;;;;;26.05;19.92;;;;;;;;;;10128654;28;20131;-77
2024/03/19 16:49:18;;;;;;;25.35;20.05;;;;;;;;;;10129673;28;20063;-78
2024/03/19 16:54:13;;;;;;;30.20;19.20;;;;;;;;;;10127815;28;20041;-78
2024/03/19 16:59:06;;;;;;;29.10;18.92;;;;;;;;;;10127869;28;20044;-78
2024/03/19 17:03:57;;;;;;;27.92;19.17;;;;;;;;;;10129389;28;20040;-79
2024/03/19 17:08:50;;;;;;;23.42;18.95;;;;;;;;;;10129408;28;20121;-77
2024/03/19 17:13:45;;;;;;;33.60;20.15;;;;;;;;;;10129350;28;20507;-78
2024/03/19 17:18:38;;;;;;;23.52;17.17;;;;;;;;;;10124174;28;20051;-75
2024/03/19 17:23:31;;;;;;;21.90;15.07;;;;;;;;;;10129813;28;20042;-75
2024/03/19 17:28:24;;;;;;;19.30;15.75;;;;;;;;;;10127996;28;20048;-76
2024/03/19 17:33:16;;;;;;;22.58;15.73;;;;;;;;;;10129675;28;20607;-76
2024/03/19 17:38:09;;;;;;;20.92;15.40;;;;;;;;;;10126138;28;20052;-77
2024/03/19 17:43:04;;;;;;;22.08;16.85;;;;;;;;;;10098394;28;20048;-76
2024/03/19 17:47:56;;;;;;;35.00;21.75;;;;;;;;;;10126280;28;20050;-76
2024/03/19 17:52:48;;;;;;;34.90;27.33;;;;;;;;;;10126581;28;20037;-78
2024/03/19 17:57:41;;;;;;;28.27;22.27;;;;;;;;;;10129559;28;20037;-75
2024/03/19 18:02:33;;;;;;;27.60;19.90;;;;;;;;;;10127772;28;20151;-76
2024/03/19 18:07:27;;;;;;;22.83;16.98;;;;;;;;;;10127829;28;20045;-76
2024/03/19 18:12:19;;;;;;;23.20;17.73;;;;;;;;;;10105690;28;20484;-76
2024/03/19 18:17:11;;;;;;;23.80;17.63;;;;;;;;;;10135111;28;20484;-76
2024/03/19 18:22:04;;;;;;;18.55;16.42;;;;;;;;;;10137303;28;20177;-76
2024/03/19 18:26:57;;;;;;;27.05;18.63;;;;;;;;;;10173123;28;20036;-77
2024/03/19 18:31:49;;;;;;;24.60;18.17;;;;;;;;;;10172369;28;20126;-75
2024/03/19 18:36:41;;;;;;;27.52;19.30;;;;;;;;;;10177635;28;20032;-77
2024/03/19 18:41:34;;;;;;;23.88;17.80;;;;;;;;;;10175151;28;20162;-76
2024/03/19 18:46:26;;;;;;;30.08;21.30;;;;;;;;;;10153546;28;20044;-77
2024/03/19 18:51:18;;;;;;;26.95;19.85;;;;;;;;;;10125974;28;20052;-78
2024/03/19 18:56:11;;;;;;;28.98;19.25;;;;;;;;;;10130394;28;20054;-77
2024/03/19 19:01:04;;;;;;;35.13;24.23;;;;;;;;;;10126596;28;20413;-76
2024/03/19 19:05:56;;;;;;;26.38;20.88;;;;;;;;;;10125247;28;20037;-76
2024/03/19 19:10:50;;;;;;;30.63;21.80;;;;;;;;;;10124445;28;20036;-75
2024/03/19 19:15:42;;;;;;;33.55;24.77;;;;;;;;;;10125793;28;20044;-77
2024/03/19 19:20:35;;;;;;;31.42;21.95;;;;;;;;;;10130369;28;20131;-77
2024/03/19 19:25:27;;;;;;;26.98;21.10;;;;;;;;;;10133041;28;20045;-77
2024/03/19 19:30:19;;;;;;;33.70;25.13;;;;;;;;;;10130751;28;20048;-76
2024/03/19 19:35:11;;;;;;;33.58;23.08;;;;;;;;;;10128554;28;20067;-76
2024/03/19 19:40:08;;;;;;;32.83;25.60;;;;;;;;;;10109075;28;20045;-77
2024/03/19 19:45:00;;;;;;;40.25;26.23;;;;;;;;;;10135542;28;20135;-76
2024/03/19 19:49:53;;;;;;;36.28;26.23;;;;;;;;;;10130615;28;20044;-77
2024/03/19 19:54:46;;;;;;;37.45;26.52;;;;;;;;;;10132580;28;20031;-76
2024/03/19 19:59:41;;;;;;;36.85;27.65;;;;;;;;;;10126481;28;20043;-77
2024/03/19 20:04:33;;;;;;;38.63;28.90;;;;;;;;;;10142466;28;20055;-77
2024/03/19 20:09:26;;;;;;;31.70;25.23;;;;;;;;;;10133416;28;20510;-77
2024/03/19 20:14:18;;;;;;;34.80;26.42;;;;;;;;;;10129894;28;20052;-78
2024/03/19 20:19:11;;;;;;;32.78;26.40;;;;;;;;;;10119060;28;20041;-78
2024/03/19 20:24:04;;;;;;;44.25;31.25;;;;;;;;;;10121807;28;20497;-77
2024/03/19 20:28:56;;;;;;;40.05;30.02;;;;;;;;;;10118646;28;20040;-76
2024/03/19 20:33:48;;;;;;;42.53;29.02;;;;;;;;;;10120729;28;20162;-75
2024/03/19 20:38:41;;;;;;;38.38;27.13;;;;;;;;;;10117044;28;20412;-77
2024/03/19 20:43:34;;;;;;;38.03;28.00;;;;;;;;;;10113579;28;20478;-77
2024/03/19 20:48:26;;;;;;;41.05;29.48;;;;;;;;;;10113815;28;20099;-77
2024/03/19 20:53:18;;;;;;;37.95;28.50;;;;;;;;;;10113857;28;20072;-77
2024/03/19 20:58:10;;;;;;;40.58;30.95;;;;;;;;;;10112451;28;20055;-77
2024/03/19 21:03:03;;;;;;;40.50;30.58;;;;;;;;;;10113499;28;20056;-78
2024/03/19 21:07:55;;;;;;;39.97;30.15;;;;;;;;;;10113331;28;20076;-77
2024/03/19 21:12:47;;;;;;;44.45;31.75;;;;;;;;;;10115933;28;20045;-77
2024/03/19 21:17:41;;;;;;;44.35;33.50;;;;;;;;;;10112367;28;20485;-78
2024/03/19 21:22:35;;;;;;;45.58;32.65;;;;;;;;;;10129693;28;20047;-78
2024/03/19 21:27:28;;;;;;;54.08;37.97;;;;;;;;;;10117815;28;20045;-78
2024/03/19 21:32:21;;;;;;;50.25;37.50;;;;;;;;;;10115032;28;20052;-79
2024/03/19 21:37:13;;;;;;;49.50;37.92;;;;;;;;;;10116113;28;20090;-77
2024/03/19 21:42:06;;;;;;;55.95;40.55;;;;;;;;;;10114264;28;20052;-77
2024/03/19 21:46:58;;;;;;;58.55;41.60;;;;;;;;;;10111348;28;20055;-77
2024/03/19 21:51:51;;;;;;;57.58;40.25;;;;;;;;;;10114054;28;20037;-76
2024/03/19 21:56:43;;;;;;;58.53;43.58;;;;;;;;;;10111914;28;20037;-78
2024/03/19 22:01:35;;;;;;;51.38;39.88;;;;;;;;;;10108266;28;20048;-77
2024/03/19 22:06:28;;;;;;;55.83;40.47;;;;;;;;;;10106966;28;20060;-77
2024/03/19 22:11:20;;;;;;;68.05;38.60;;;;;;;;;;10114263;28;20058;-76
2024/03/19 22:16:12;;;;;;;50.63;38.15;;;;;;;;;;10131876;28;20089;-77
2024/03/19 22:21:05;;;;;;;58.50;41.10;;;;;;;;;;10109489;28;20044;-76
2024/03/19 22:25:57;;;;;;;65.72;48.58;;;;;;;;;;10115011;28;20041;-76
2024/03/19 22:30:49;;;;;;;87.25;59.53;;;;;;;;;;10121719;28;20049;-78
2024/03/19 22:35:45;;;;;;;88.40;52.80;;;;;;;;;;10122325;28;20040;-77
2024/03/19 22:40:39;;;;;;;100.05;57.30;;;;;;;;;;10128357;28;20044;-77
2024/03/19 22:45:31;;;;;;;103.75;58.20;;;;;;;;;;10127518;28;20064;-77
2024/03/19 22:50:24;;;;;;;96.85;54.45;;;;;;;;;;10127733;28;20508;-77
2024/03/19 22:55:16;;;;;;;111.72;55.90;;;;;;;;;;10127871;28;20053;-77
2024/03/19 23:00:34;;;;;;;123.10;62.10;;;;;;;;;;10133551;28;20040;-77
2024/03/19 23:05:26;;;;;;;119.28;58.80;;;;;;;;;;10140815;28;20040;-77
2024/03/19 23:10:19;;;;;;;127.07;65.80;;;;;;;;;;10122656;28;20045;-76
2024/03/19 23:15:14;;;;;;;144.80;62.60;;;;;;;;;;10132530;28;20070;-76
2024/03/19 23:20:08;;;;;;;118.45;61.67;;;;;;;;;;10121349;28;20407;-77
2024/03/19 23:25:01;;;;;;;111.05;56.15;;;;;;;;;;10127107;28;20489;-76
2024/03/19 23:29:53;;;;;;;106.32;57.28;;;;;;;;;;10123932;28;20041;-77
2024/03/19 23:34:46;;;;;;;123.25;60.67;;;;;;;;;;10119041;28;20518;-75
2024/03/19 23:39:39;;;;;;;140.85;64.53;;;;;;;;;;10126651;28;20064;-76
2024/03/19 23:44:32;;;;;;;141.68;64.30;;;;;;;;;;10124852;28;20056;-76
2024/03/19 23:49:25;;;;;;;116.93;57.72;;;;;;;;;;10124576;28;20048;-76
2024/03/19 23:54:17;;;;;;;109.32;55.70;;;;;;;;;;10125546;28;20055;-76
2024/03/19 23:59:10;;;;;;;117.30;58.55;;;;;;;;;;10123859;28;20041;-76
